sensor_id;sensor_type;location;lat;lon;timestamp;temperature;humidity
54898;DHT22;40800;52.704;6.398;2023-07-31T00:00:08;16.00;99.90
54898;DHT22;40800;52.704;6.398;2023-07-31T00:02:34;16.60;99.90
54898;DHT22;40800;52.704;6.398;2023-07-31T00:05:01;16.50;99.90
54898;DHT22;40800;52.704;6.398;2023-07-31T00:07:26;16.00;99.90
54898;DHT22;40800;52.704;6.398;2023-07-31T00:09:52;16.10;99.90
54898;DHT22;40800;52.704;6.398;2023-07-31T00:12:19;16.30;99.90
54898;DHT22;40800;52.704;6.398;2023-07-31T00:14:45;16.50;99.90
54898;DHT22;40800;52.704;6.398;2023-07-31T00:17:11;16.20;99.90
54898;DHT22;40800;52.704;6.398;2023-07-31T00:19:37;15.90;99.90
54898;DHT22;40800;52.704;6.398;2023-07-31T00:22:03;16.30;99.90
54898;DHT22;40800;52.704;6.398;2023-07-31T00:24:28;16.10;99.90
54898;DHT22;40800;52.704;6.398;2023-07-31T00:26:54;16.00;99.90
54898;DHT22;40800;52.704;6.398;2023-07-31T00:29:20;16.40;99.90
54898;DHT22;40800;52.704;6.398;2023-07-31T00:31:45;15.80;99.90
54898;DHT22;40800;52.704;6.398;2023-07-31T00:34:11;16.00;99.90
54898;DHT22;40800;52.704;6.398;2023-07-31T00:36:36;16.50;99.90
54898;DHT22;40800;52.704;6.398;2023-07-31T00:39:02;16.20;99.90
54898;DHT22;40800;52.704;6.398;2023-07-31T00:41:28;15.80;99.90
54898;DHT22;40800;52.704;6.398;2023-07-31T00:43:53;16.30;99.90
54898;DHT22;40800;52.704;6.398;2023-07-31T00:46:20;15.80;99.90
54898;DHT22;40800;52.704;6.398;2023-07-31T00:48:45;15.90;99.90
54898;DHT22;40800;52.704;6.398;2023-07-31T00:51:11;16.40;99.90
54898;DHT22;40800;52.704;6.398;2023-07-31T00:53:37;16.30;99.90
54898;DHT22;40800;52.704;6.398;2023-07-31T00:56:03;16.40;99.90
54898;DHT22;40800;52.704;6.398;2023-07-31T00:58:29;15.90;99.90
54898;DHT22;40800;52.704;6.398;2023-07-31T01:00:55;16.50;99.90
54898;DHT22;40800;52.704;6.398;2023-07-31T01:03:21;16.40;99.90
54898;DHT22;40800;52.704;6.398;2023-07-31T01:09:00;16.50;99.90
54898;DHT22;40800;52.704;6.398;2023-07-31T01:11:31;15.80;99.90
54898;DHT22;40800;52.704;6.398;2023-07-31T01:13:58;15.80;99.90
54898;DHT22;40800;52.704;6.398;2023-07-31T01:16:25;16.10;99.90
54898;DHT22;40800;52.704;6.398;2023-07-31T01:18:51;15.80;99.90
54898;DHT22;40800;52.704;6.398;2023-07-31T01:24:20;16.00;99.90
54898;DHT22;40800;52.704;6.398;2023-07-31T01:26:53;16.00;99.90
54898;DHT22;40800;52.704;6.398;2023-07-31T01:29:28;16.50;99.90
54898;DHT22;40800;52.704;6.398;2023-07-31T01:31:56;16.50;99.90
54898;DHT22;40800;52.704;6.398;2023-07-31T01:34:25;16.00;99.90
54898;DHT22;40800;52.704;6.398;2023-07-31T01:36:51;16.30;99.90
54898;DHT22;40800;52.704;6.398;2023-07-31T01:39:17;16.10;99.90
54898;DHT22;40800;52.704;6.398;2023-07-31T01:41:45;16.80;99.90
54898;DHT22;40800;52.704;6.398;2023-07-31T01:44:11;16.30;99.90
54898;DHT22;40800;52.704;6.398;2023-07-31T01:46:37;16.80;99.90
54898;DHT22;40800;52.704;6.398;2023-07-31T01:49:03;16.80;99.90
54898;DHT22;40800;52.704;6.398;2023-07-31T01:51:31;16.40;99.90
54898;DHT22;40800;52.704;6.398;2023-07-31T01:54:02;16.80;99.90
54898;DHT22;40800;52.704;6.398;2023-07-31T01:56:28;16.90;99.90
54898;DHT22;40800;52.704;6.398;2023-07-31T01:58:54;16.10;99.90
54898;DHT22;40800;52.704;6.398;2023-07-31T02:01:19;17.00;99.90
54898;DHT22;40800;52.704;6.398;2023-07-31T02:03:45;16.10;99.90
54898;DHT22;40800;52.704;6.398;2023-07-31T02:06:10;16.20;99.90
54898;DHT22;40800;52.704;6.398;2023-07-31T02:08:36;17.20;99.90
54898;DHT22;40800;52.704;6.398;2023-07-31T02:11:02;17.20;99.90
54898;DHT22;40800;52.704;6.398;2023-07-31T02:13:27;16.30;99.90
54898;DHT22;40800;52.704;6.398;2023-07-31T02:15:53;16.20;99.90
54898;DHT22;40800;52.704;6.398;2023-07-31T02:18:19;17.10;99.90
54898;DHT22;40800;52.704;6.398;2023-07-31T02:20:52;16.90;99.90
54898;DHT22;40800;52.704;6.398;2023-07-31T02:23:18;16.50;99.90
54898;DHT22;40800;52.704;6.398;2023-07-31T02:25:44;17.30;99.90
54898;DHT22;40800;52.704;6.398;2023-07-31T02:28:10;16.40;99.90
54898;DHT22;40800;52.704;6.398;2023-07-31T02:30:35;17.20;99.90
54898;DHT22;40800;52.704;6.398;2023-07-31T02:33:01;16.50;99.90
54898;DHT22;40800;52.704;6.398;2023-07-31T02:35:27;17.30;99.90
54898;DHT22;40800;52.704;6.398;2023-07-31T02:37:52;16.60;99.90
54898;DHT22;40800;52.704;6.398;2023-07-31T02:40:18;16.50;99.90
54898;DHT22;40800;52.704;6.398;2023-07-31T02:42:44;16.60;99.90
54898;DHT22;40800;52.704;6.398;2023-07-31T02:45:09;16.60;99.90
54898;DHT22;40800;52.704;6.398;2023-07-31T02:47:35;17.10;99.90
54898;DHT22;40800;52.704;6.398;2023-07-31T02:50:02;17.50;99.90
54898;DHT22;40800;52.704;6.398;2023-07-31T02:52:28;17.70;99.90
54898;DHT22;40800;52.704;6.398;2023-07-31T02:54:53;16.60;99.90
54898;DHT22;40800;52.704;6.398;2023-07-31T02:57:19;16.70;99.90
54898;DHT22;40800;52.704;6.398;2023-07-31T02:59:44;17.90;99.90
54898;DHT22;40800;52.704;6.398;2023-07-31T03:02:10;17.20;99.90
54898;DHT22;40800;52.704;6.398;2023-07-31T03:04:36;16.60;99.90
54898;DHT22;40800;52.704;6.398;2023-07-31T03:07:02;17.80;99.90
54898;DHT22;40800;52.704;6.398;2023-07-31T03:09:28;17.80;99.90
54898;DHT22;40800;52.704;6.398;2023-07-31T03:11:53;17.70;99.90
54898;DHT22;40800;52.704;6.398;2023-07-31T03:14:19;16.70;99.90
54898;DHT22;40800;52.704;6.398;2023-07-31T03:16:44;17.80;99.90
54898;DHT22;40800;52.704;6.398;2023-07-31T03:19:10;16.70;99.90
54898;DHT22;40800;52.704;6.398;2023-07-31T03:21:35;17.00;99.90
54898;DHT22;40800;52.704;6.398;2023-07-31T03:24:01;18.00;99.90
54898;DHT22;40800;52.704;6.398;2023-07-31T03:26:26;17.20;99.90
54898;DHT22;40800;52.704;6.398;2023-07-31T03:28:52;17.90;99.90
54898;DHT22;40800;52.704;6.398;2023-07-31T03:31:18;17.90;99.90
54898;DHT22;40800;52.704;6.398;2023-07-31T03:33:43;16.90;99.90
54898;DHT22;40800;52.704;6.398;2023-07-31T03:36:09;18.20;99.90
54898;DHT22;40800;52.704;6.398;2023-07-31T03:38:34;18.20;99.90
54898;DHT22;40800;52.704;6.398;2023-07-31T03:41:00;18.00;99.90
54898;DHT22;40800;52.704;6.398;2023-07-31T03:43:26;17.50;99.90
54898;DHT22;40800;52.704;6.398;2023-07-31T03:45:51;17.00;99.90
54898;DHT22;40800;52.704;6.398;2023-07-31T03:48:17;17.70;99.90
54898;DHT22;40800;52.704;6.398;2023-07-31T03:50:43;17.30;99.90
54898;DHT22;40800;52.704;6.398;2023-07-31T03:53:08;18.30;99.90
54898;DHT22;40800;52.704;6.398;2023-07-31T03:55:34;18.20;99.90
54898;DHT22;40800;52.704;6.398;2023-07-31T03:57:59;18.00;99.90
54898;DHT22;40800;52.704;6.398;2023-07-31T04:00:28;17.40;99.90
54898;DHT22;40800;52.704;6.398;2023-07-31T04:02:53;18.10;99.90
54898;DHT22;40800;52.704;6.398;2023-07-31T04:05:19;17.90;99.90
54898;DHT22;40800;52.704;6.398;2023-07-31T04:07:45;17.40;99.90
54898;DHT22;40800;52.704;6.398;2023-07-31T04:10:10;18.20;99.90
54898;DHT22;40800;52.704;6.398;2023-07-31T04:12:36;17.70;99.90
54898;DHT22;40800;52.704;6.398;2023-07-31T04:15:01;17.00;99.90
54898;DHT22;40800;52.704;6.398;2023-07-31T04:17:27;18.10;99.90
54898;DHT22;40800;52.704;6.398;2023-07-31T04:19:53;18.40;99.90
54898;DHT22;40800;52.704;6.398;2023-07-31T04:22:18;17.40;99.90
54898;DHT22;40800;52.704;6.398;2023-07-31T04:24:44;18.50;99.90
54898;DHT22;40800;52.704;6.398;2023-07-31T04:27:09;17.70;99.90
54898;DHT22;40800;52.704;6.398;2023-07-31T04:29:35;18.50;99.90
54898;DHT22;40800;52.704;6.398;2023-07-31T04:32:01;18.50;99.90
54898;DHT22;40800;52.704;6.398;2023-07-31T04:34:26;17.40;99.90
54898;DHT22;40800;52.704;6.398;2023-07-31T04:36:52;18.30;99.90
54898;DHT22;40800;52.704;6.398;2023-07-31T04:39:17;17.30;99.90
54898;DHT22;40800;52.704;6.398;2023-07-31T04:41:43;17.80;99.90
54898;DHT22;40800;52.704;6.398;2023-07-31T04:44:08;17.40;99.90
54898;DHT22;40800;52.704;6.398;2023-07-31T04:46:36;18.60;99.90
54898;DHT22;40800;52.704;6.398;2023-07-31T04:49:02;17.60;99.90
54898;DHT22;40800;52.704;6.398;2023-07-31T04:51:28;17.40;99.90
54898;DHT22;40800;52.704;6.398;2023-07-31T04:53:54;17.30;99.90
54898;DHT22;40800;52.704;6.398;2023-07-31T04:56:19;17.30;99.90
54898;DHT22;40800;52.704;6.398;2023-07-31T04:58:45;18.50;99.90
54898;DHT22;40800;52.704;6.398;2023-07-31T05:01:10;18.00;99.90
54898;DHT22;40800;52.704;6.398;2023-07-31T05:03:36;17.50;99.90
54898;DHT22;40800;52.704;6.398;2023-07-31T05:06:01;18.50;99.90
54898;DHT22;40800;52.704;6.398;2023-07-31T05:08:27;18.00;99.90
54898;DHT22;40800;52.704;6.398;2023-07-31T05:10:52;18.00;99.90
54898;DHT22;40800;52.704;6.398;2023-07-31T05:13:18;17.30;99.90
54898;DHT22;40800;52.704;6.398;2023-07-31T05:15:44;17.40;99.90
54898;DHT22;40800;52.704;6.398;2023-07-31T05:18:10;17.40;99.90
54898;DHT22;40800;52.704;6.398;2023-07-31T05:20:36;18.50;99.90
54898;DHT22;40800;52.704;6.398;2023-07-31T05:23:01;17.50;99.90
54898;DHT22;40800;52.704;6.398;2023-07-31T05:25:27;18.00;99.90
54898;DHT22;40800;52.704;6.398;2023-07-31T05:27:53;18.20;99.90
54898;DHT22;40800;52.704;6.398;2023-07-31T05:30:18;18.10;99.90
54898;DHT22;40800;52.704;6.398;2023-07-31T05:32:44;17.60;99.90
54898;DHT22;40800;52.704;6.398;2023-07-31T05:35:09;18.30;99.90
54898;DHT22;40800;52.704;6.398;2023-07-31T05:37:35;17.60;99.90
54898;DHT22;40800;52.704;6.398;2023-07-31T05:40:01;17.40;99.90
54898;DHT22;40800;52.704;6.398;2023-07-31T05:42:26;18.40;99.90
54898;DHT22;40800;52.704;6.398;2023-07-31T05:44:52;18.40;99.90
54898;DHT22;40800;52.704;6.398;2023-07-31T05:47:18;18.50;99.90
54898;DHT22;40800;52.704;6.398;2023-07-31T05:49:43;18.40;99.90
54898;DHT22;40800;52.704;6.398;2023-07-31T05:52:09;17.40;99.90
54898;DHT22;40800;52.704;6.398;2023-07-31T05:54:35;17.40;99.90
54898;DHT22;40800;52.704;6.398;2023-07-31T05:57:01;18.30;99.90
54898;DHT22;40800;52.704;6.398;2023-07-31T05:59:26;17.40;99.90
54898;DHT22;40800;52.704;6.398;2023-07-31T06:01:52;17.90;99.90
54898;DHT22;40800;52.704;6.398;2023-07-31T06:04:18;18.30;99.90
54898;DHT22;40800;52.704;6.398;2023-07-31T06:06:44;17.30;99.90
54898;DHT22;40800;52.704;6.398;2023-07-31T06:09:09;17.40;99.90
54898;DHT22;40800;52.704;6.398;2023-07-31T06:11:35;18.30;99.90
54898;DHT22;40800;52.704;6.398;2023-07-31T06:14:00;18.40;99.90
54898;DHT22;40800;52.704;6.398;2023-07-31T06:16:26;18.40;99.90
54898;DHT22;40800;52.704;6.398;2023-07-31T06:18:52;17.80;99.90
54898;DHT22;40800;52.704;6.398;2023-07-31T06:21:18;18.00;99.90
54898;DHT22;40800;52.704;6.398;2023-07-31T06:23:43;17.30;99.90
54898;DHT22;40800;52.704;6.398;2023-07-31T06:26:09;18.20;99.90
54898;DHT22;40800;52.704;6.398;2023-07-31T06:28:35;17.90;99.90
54898;DHT22;40800;52.704;6.398;2023-07-31T06:31:00;18.00;99.90
54898;DHT22;40800;52.704;6.398;2023-07-31T06:33:27;17.40;99.90
54898;DHT22;40800;52.704;6.398;2023-07-31T06:35:53;17.20;99.90
54898;DHT22;40800;52.704;6.398;2023-07-31T06:38:23;17.30;99.90
54898;DHT22;40800;52.704;6.398;2023-07-31T06:40:49;17.80;99.90
54898;DHT22;40800;52.704;6.398;2023-07-31T06:43:15;17.40;99.90
54898;DHT22;40800;52.704;6.398;2023-07-31T06:45:41;18.20;99.90
54898;DHT22;40800;52.704;6.398;2023-07-31T06:48:06;18.20;99.90
54898;DHT22;40800;52.704;6.398;2023-07-31T06:50:32;17.30;99.90
54898;DHT22;40800;52.704;6.398;2023-07-31T06:52:58;17.10;99.90
54898;DHT22;40800;52.704;6.398;2023-07-31T06:55:24;18.30;99.90
54898;DHT22;40800;52.704;6.398;2023-07-31T06:57:52;18.30;99.90
54898;DHT22;40800;52.704;6.398;2023-07-31T07:00:19;18.20;99.90
54898;DHT22;40800;52.704;6.398;2023-07-31T07:02:45;18.20;99.90
54898;DHT22;40800;52.704;6.398;2023-07-31T07:05:13;18.40;99.90
54898;DHT22;40800;52.704;6.398;2023-07-31T07:07:38;17.20;99.90
54898;DHT22;40800;52.704;6.398;2023-07-31T07:10:04;18.30;99.90
54898;DHT22;40800;52.704;6.398;2023-07-31T07:12:32;18.30;99.90
54898;DHT22;40800;52.704;6.398;2023-07-31T07:14:58;18.40;99.90
54898;DHT22;40800;52.704;6.398;2023-07-31T07:17:25;17.30;99.90
54898;DHT22;40800;52.704;6.398;2023-07-31T07:19:50;18.50;99.90
54898;DHT22;40800;52.704;6.398;2023-07-31T07:22:16;17.20;99.90
54898;DHT22;40800;52.704;6.398;2023-07-31T07:24:42;17.30;99.90
54898;DHT22;40800;52.704;6.398;2023-07-31T07:27:07;17.50;99.90
54898;DHT22;40800;52.704;6.398;2023-07-31T07:29:38;18.50;99.90
54898;DHT22;40800;52.704;6.398;2023-07-31T07:32:04;17.90;99.90
54898;DHT22;40800;52.704;6.398;2023-07-31T07:34:29;17.20;99.90
54898;DHT22;40800;52.704;6.398;2023-07-31T07:36:55;18.00;99.90
54898;DHT22;40800;52.704;6.398;2023-07-31T07:39:21;17.30;99.90
54898;DHT22;40800;52.704;6.398;2023-07-31T07:41:47;18.30;99.90
54898;DHT22;40800;52.704;6.398;2023-07-31T07:44:13;17.50;99.90
54898;DHT22;40800;52.704;6.398;2023-07-31T07:46:39;18.20;99.90
54898;DHT22;40800;52.704;6.398;2023-07-31T07:49:05;18.00;99.90
54898;DHT22;40800;52.704;6.398;2023-07-31T07:51:30;17.30;99.90
54898;DHT22;40800;52.704;6.398;2023-07-31T07:53:57;17.30;99.90
54898;DHT22;40800;52.704;6.398;2023-07-31T07:56:23;17.40;99.90
54898;DHT22;40800;52.704;6.398;2023-07-31T07:58:50;17.30;99.90
54898;DHT22;40800;52.704;6.398;2023-07-31T08:01:16;17.90;99.90
54898;DHT22;40800;52.704;6.398;2023-07-31T08:03:41;17.50;99.90
54898;DHT22;40800;52.704;6.398;2023-07-31T08:06:07;18.40;99.90
54898;DHT22;40800;52.704;6.398;2023-07-31T08:08:34;18.40;99.90
54898;DHT22;40800;52.704;6.398;2023-07-31T08:11:00;18.30;99.90
54898;DHT22;40800;52.704;6.398;2023-07-31T08:13:26;18.00;99.90
54898;DHT22;40800;52.704;6.398;2023-07-31T08:15:52;18.40;99.90
54898;DHT22;40800;52.704;6.398;2023-07-31T08:18:17;18.20;99.90
54898;DHT22;40800;52.704;6.398;2023-07-31T08:20:43;18.00;99.90
54898;DHT22;40800;52.704;6.398;2023-07-31T08:23:09;18.90;99.90
54898;DHT22;40800;52.704;6.398;2023-07-31T08:25:38;17.70;99.90
54898;DHT22;40800;52.704;6.398;2023-07-31T08:28:04;18.80;99.90
54898;DHT22;40800;52.704;6.398;2023-07-31T08:30:30;17.80;99.90
54898;DHT22;40800;52.704;6.398;2023-07-31T08:32:56;18.80;99.90
54898;DHT22;40800;52.704;6.398;2023-07-31T08:35:22;18.80;99.90
54898;DHT22;40800;52.704;6.398;2023-07-31T08:37:48;17.80;99.90
54898;DHT22;40800;52.704;6.398;2023-07-31T08:40:13;19.00;99.90
54898;DHT22;40800;52.704;6.398;2023-07-31T08:42:46;18.00;99.90
54898;DHT22;40800;52.704;6.398;2023-07-31T08:45:16;18.50;99.90
54898;DHT22;40800;52.704;6.398;2023-07-31T08:47:47;18.10;99.90
54898;DHT22;40800;52.704;6.398;2023-07-31T08:50:14;19.20;99.90
54898;DHT22;40800;52.704;6.398;2023-07-31T08:52:40;19.00;99.90
54898;DHT22;40800;52.704;6.398;2023-07-31T08:55:07;18.10;99.90
54898;DHT22;40800;52.704;6.398;2023-07-31T08:57:34;18.10;99.90
54898;DHT22;40800;52.704;6.398;2023-07-31T09:00:01;18.70;99.90
54898;DHT22;40800;52.704;6.398;2023-07-31T09:02:31;18.30;99.90
54898;DHT22;40800;52.704;6.398;2023-07-31T09:05:00;18.10;99.90
54898;DHT22;40800;52.704;6.398;2023-07-31T09:07:26;18.20;99.90
54898;DHT22;40800;52.704;6.398;2023-07-31T09:09:52;18.30;99.90
54898;DHT22;40800;52.704;6.398;2023-07-31T09:12:19;18.30;99.90
54898;DHT22;40800;52.704;6.398;2023-07-31T09:14:46;18.80;99.90
54898;DHT22;40800;52.704;6.398;2023-07-31T09:17:12;18.40;99.90
54898;DHT22;40800;52.704;6.398;2023-07-31T09:19:38;19.50;99.90
54898;DHT22;40800;52.704;6.398;2023-07-31T09:22:05;18.90;99.90
54898;DHT22;40800;52.704;6.398;2023-07-31T09:24:32;19.40;99.90
54898;DHT22;40800;52.704;6.398;2023-07-31T09:26:59;19.70;99.90
54898;DHT22;40800;52.704;6.398;2023-07-31T09:29:26;19.60;99.90
54898;DHT22;40800;52.704;6.398;2023-07-31T09:31:53;19.60;99.90
54898;DHT22;40800;52.704;6.398;2023-07-31T09:34:20;19.60;99.90
54898;DHT22;40800;52.704;6.398;2023-07-31T09:36:53;18.50;99.90
54898;DHT22;40800;52.704;6.398;2023-07-31T09:39:19;18.50;99.90
54898;DHT22;40800;52.704;6.398;2023-07-31T09:41:54;19.80;99.90
54898;DHT22;40800;52.704;6.398;2023-07-31T09:44:20;19.80;99.90
54898;DHT22;40800;52.704;6.398;2023-07-31T09:46:46;19.70;99.90
54898;DHT22;40800;52.704;6.398;2023-07-31T09:49:14;19.20;99.90
54898;DHT22;40800;52.704;6.398;2023-07-31T09:51:41;19.40;99.90
54898;DHT22;40800;52.704;6.398;2023-07-31T09:54:14;18.90;99.90
54898;DHT22;40800;52.704;6.398;2023-07-31T09:56:48;18.90;99.90
54898;DHT22;40800;52.704;6.398;2023-07-31T09:59:18;19.20;99.90
54898;DHT22;40800;52.704;6.398;2023-07-31T10:01:46;19.00;99.90
54898;DHT22;40800;52.704;6.398;2023-07-31T10:04:13;18.90;99.90
54898;DHT22;40800;52.704;6.398;2023-07-31T10:06:39;19.20;99.90
54898;DHT22;40800;52.704;6.398;2023-07-31T10:09:07;20.20;99.90
54898;DHT22;40800;52.704;6.398;2023-07-31T10:11:46;19.80;99.90
54898;DHT22;40800;52.704;6.398;2023-07-31T10:14:18;20.10;99.90
54898;DHT22;40800;52.704;6.398;2023-07-31T10:16:47;19.20;99.90
54898;DHT22;40800;52.704;6.398;2023-07-31T10:19:12;19.00;99.90
54898;DHT22;40800;52.704;6.398;2023-07-31T10:21:38;19.20;99.90
54898;DHT22;40800;52.704;6.398;2023-07-31T10:24:05;19.00;99.90
54898;DHT22;40800;52.704;6.398;2023-07-31T10:26:32;19.30;99.90
54898;DHT22;40800;52.704;6.398;2023-07-31T10:29:00;19.20;99.90
54898;DHT22;40800;52.704;6.398;2023-07-31T10:31:28;19.30;99.90
54898;DHT22;40800;52.704;6.398;2023-07-31T10:33:55;19.30;99.90
54898;DHT22;40800;52.704;6.398;2023-07-31T10:36:21;19.50;99.90
54898;DHT22;40800;52.704;6.398;2023-07-31T10:38:49;19.40;99.90
54898;DHT22;40800;52.704;6.398;2023-07-31T10:41:16;20.60;99.90
54898;DHT22;40800;52.704;6.398;2023-07-31T10:43:42;19.40;99.90
54898;DHT22;40800;52.704;6.398;2023-07-31T10:46:14;20.50;99.90
54898;DHT22;40800;52.704;6.398;2023-07-31T10:48:41;19.70;99.90
54898;DHT22;40800;52.704;6.398;2023-07-31T10:51:08;20.80;99.90
54898;DHT22;40800;52.704;6.398;2023-07-31T10:53:35;20.30;99.90
54898;DHT22;40800;52.704;6.398;2023-07-31T10:56:05;20.60;99.90
54898;DHT22;40800;52.704;6.398;2023-07-31T10:58:32;20.70;99.90
54898;DHT22;40800;52.704;6.398;2023-07-31T11:01:02;19.90;99.90
54898;DHT22;40800;52.704;6.398;2023-07-31T11:03:43;19.90;99.90
54898;DHT22;40800;52.704;6.398;2023-07-31T11:06:09;20.50;99.90
54898;DHT22;40800;52.704;6.398;2023-07-31T11:08:41;19.40;99.90
54898;DHT22;40800;52.704;6.398;2023-07-31T11:11:08;19.40;99.90
54898;DHT22;40800;52.704;6.398;2023-07-31T11:16:09;20.70;99.90
54898;DHT22;40800;52.704;6.398;2023-07-31T11:18:34;20.50;99.90
54898;DHT22;40800;52.704;6.398;2023-07-31T11:21:00;20.60;99.90
54898;DHT22;40800;52.704;6.398;2023-07-31T11:23:26;20.00;99.90
54898;DHT22;40800;52.704;6.398;2023-07-31T11:25:51;20.60;99.90
54898;DHT22;40800;52.704;6.398;2023-07-31T11:28:18;20.50;99.90
54898;DHT22;40800;52.704;6.398;2023-07-31T11:30:44;19.70;99.90
54898;DHT22;40800;52.704;6.398;2023-07-31T11:33:12;20.40;99.90
54898;DHT22;40800;52.704;6.398;2023-07-31T11:35:48;19.60;99.90
54898;DHT22;40800;52.704;6.398;2023-07-31T11:38:28;19.60;99.90
54898;DHT22;40800;52.704;6.398;2023-07-31T11:40:57;20.70;99.90
54898;DHT22;40800;52.704;6.398;2023-07-31T11:43:23;19.60;99.90
54898;DHT22;40800;52.704;6.398;2023-07-31T11:45:51;20.30;99.90
54898;DHT22;40800;52.704;6.398;2023-07-31T11:48:31;19.70;99.90
54898;DHT22;40800;52.704;6.398;2023-07-31T11:51:01;20.20;99.90
54898;DHT22;40800;52.704;6.398;2023-07-31T11:53:31;19.80;99.90
54898;DHT22;40800;52.704;6.398;2023-07-31T11:55:59;20.70;99.90
54898;DHT22;40800;52.704;6.398;2023-07-31T11:58:26;19.70;99.90
54898;DHT22;40800;52.704;6.398;2023-07-31T12:00:53;19.50;99.90
54898;DHT22;40800;52.704;6.398;2023-07-31T12:03:19;20.50;99.90
54898;DHT22;40800;52.704;6.398;2023-07-31T12:05:47;20.60;99.90
54898;DHT22;40800;52.704;6.398;2023-07-31T12:08:13;19.80;99.90
54898;DHT22;40800;52.704;6.398;2023-07-31T12:10:39;20.80;99.90
54898;DHT22;40800;52.704;6.398;2023-07-31T12:13:07;19.90;99.90
54898;DHT22;40800;52.704;6.398;2023-07-31T12:15:40;19.90;99.90
54898;DHT22;40800;52.704;6.398;2023-07-31T12:18:11;20.00;99.90
54898;DHT22;40800;52.704;6.398;2023-07-31T12:20:45;20.30;99.90
54898;DHT22;40800;52.704;6.398;2023-07-31T12:23:19;19.80;99.90
54898;DHT22;40800;52.704;6.398;2023-07-31T12:26:03;20.90;99.90
54898;DHT22;40800;52.704;6.398;2023-07-31T12:28:29;21.10;99.90
54898;DHT22;40800;52.704;6.398;2023-07-31T12:31:00;20.20;99.90
54898;DHT22;40800;52.704;6.398;2023-07-31T12:33:34;21.10;99.90
54898;DHT22;40800;52.704;6.398;2023-07-31T12:36:07;21.20;99.90
54898;DHT22;40800;52.704;6.398;2023-07-31T12:38:33;22.20;99.90
54898;DHT22;40800;52.704;6.398;2023-07-31T12:40:58;21.40;99.90
54898;DHT22;40800;52.704;6.398;2023-07-31T12:43:24;21.60;99.90
54898;DHT22;40800;52.704;6.398;2023-07-31T12:45:50;21.50;99.90
54898;DHT22;40800;52.704;6.398;2023-07-31T12:48:16;21.10;99.90
54898;DHT22;40800;52.704;6.398;2023-07-31T12:50:41;21.30;99.90
54898;DHT22;40800;52.704;6.398;2023-07-31T12:53:07;21.10;99.90
54898;DHT22;40800;52.704;6.398;2023-07-31T12:55:33;20.40;99.90
54898;DHT22;40800;52.704;6.398;2023-07-31T12:58:00;20.80;99.90
54898;DHT22;40800;52.704;6.398;2023-07-31T13:00:26;20.20;99.90
54898;DHT22;40800;52.704;6.398;2023-07-31T13:02:52;20.70;99.90
54898;DHT22;40800;52.704;6.398;2023-07-31T13:05:18;20.90;99.90
54898;DHT22;40800;52.704;6.398;2023-07-31T13:07:45;20.80;99.90
54898;DHT22;40800;52.704;6.398;2023-07-31T13:10:10;21.00;99.90
54898;DHT22;40800;52.704;6.398;2023-07-31T13:12:36;20.70;99.90
54898;DHT22;40800;52.704;6.398;2023-07-31T13:15:02;20.80;99.90
54898;DHT22;40800;52.704;6.398;2023-07-31T13:17:27;20.40;99.90
54898;DHT22;40800;52.704;6.398;2023-07-31T13:19:53;21.10;99.90
54898;DHT22;40800;52.704;6.398;2023-07-31T13:22:19;20.50;99.90
54898;DHT22;40800;52.704;6.398;2023-07-31T13:24:44;20.20;99.90
54898;DHT22;40800;52.704;6.398;2023-07-31T13:27:10;20.40;99.90
54898;DHT22;40800;52.704;6.398;2023-07-31T13:29:35;20.40;99.90
54898;DHT22;40800;52.704;6.398;2023-07-31T13:32:01;20.60;99.90
54898;DHT22;40800;52.704;6.398;2023-07-31T13:34:27;20.30;99.90
54898;DHT22;40800;52.704;6.398;2023-07-31T13:36:54;20.50;99.90
54898;DHT22;40800;52.704;6.398;2023-07-31T13:39:20;20.60;99.90
54898;DHT22;40800;52.704;6.398;2023-07-31T13:41:46;19.80;99.90
54898;DHT22;40800;52.704;6.398;2023-07-31T13:44:12;20.00;99.90
54898;DHT22;40800;52.704;6.398;2023-07-31T13:46:37;20.20;99.90
54898;DHT22;40800;52.704;6.398;2023-07-31T13:49:03;20.70;99.90
54898;DHT22;40800;52.704;6.398;2023-07-31T13:51:28;20.50;99.90
54898;DHT22;40800;52.704;6.398;2023-07-31T13:53:54;20.30;99.90
54898;DHT22;40800;52.704;6.398;2023-07-31T13:56:20;20.50;99.90
54898;DHT22;40800;52.704;6.398;2023-07-31T13:58:46;20.70;99.90
54898;DHT22;40800;52.704;6.398;2023-07-31T14:01:11;20.50;99.90
54898;DHT22;40800;52.704;6.398;2023-07-31T14:03:37;20.90;99.90
54898;DHT22;40800;52.704;6.398;2023-07-31T14:06:02;20.30;99.90
54898;DHT22;40800;52.704;6.398;2023-07-31T14:08:28;20.80;99.90
54898;DHT22;40800;52.704;6.398;2023-07-31T14:10:55;20.40;99.90
54898;DHT22;40800;52.704;6.398;2023-07-31T14:13:20;20.90;99.90
54898;DHT22;40800;52.704;6.398;2023-07-31T14:15:46;21.00;99.90
54898;DHT22;40800;52.704;6.398;2023-07-31T14:18:12;20.30;99.90
54898;DHT22;40800;52.704;6.398;2023-07-31T14:20:37;20.40;99.90
54898;DHT22;40800;52.704;6.398;2023-07-31T14:23:03;21.00;99.90
54898;DHT22;40800;52.704;6.398;2023-07-31T14:25:29;20.60;99.90
54898;DHT22;40800;52.704;6.398;2023-07-31T14:27:55;21.00;99.90
54898;DHT22;40800;52.704;6.398;2023-07-31T14:30:20;21.00;99.90
54898;DHT22;40800;52.704;6.398;2023-07-31T14:32:46;20.60;99.90
54898;DHT22;40800;52.704;6.398;2023-07-31T14:35:12;20.50;99.90
54898;DHT22;40800;52.704;6.398;2023-07-31T14:40:05;20.70;99.90
54898;DHT22;40800;52.704;6.398;2023-07-31T14:42:31;20.30;99.90
54898;DHT22;40800;52.704;6.398;2023-07-31T14:44:57;20.40;99.90
54898;DHT22;40800;52.704;6.398;2023-07-31T14:47:22;20.30;99.90
54898;DHT22;40800;52.704;6.398;2023-07-31T14:49:48;20.70;99.90
54898;DHT22;40800;52.704;6.398;2023-07-31T14:52:14;20.70;99.90
54898;DHT22;40800;52.704;6.398;2023-07-31T14:54:40;20.30;99.90
54898;DHT22;40800;52.704;6.398;2023-07-31T14:57:06;20.30;99.90
54898;DHT22;40800;52.704;6.398;2023-07-31T14:59:31;20.40;99.90
54898;DHT22;40800;52.704;6.398;2023-07-31T15:01:57;20.70;99.90
54898;DHT22;40800;52.704;6.398;2023-07-31T15:04:22;20.60;99.90
54898;DHT22;40800;52.704;6.398;2023-07-31T15:06:49;20.30;99.90
54898;DHT22;40800;52.704;6.398;2023-07-31T15:09:15;20.30;99.90
54898;DHT22;40800;52.704;6.398;2023-07-31T15:11:41;20.50;99.90
54898;DHT22;40800;52.704;6.398;2023-07-31T15:14:06;20.40;99.90
54898;DHT22;40800;52.704;6.398;2023-07-31T15:16:32;20.50;99.90
54898;DHT22;40800;52.704;6.398;2023-07-31T15:18:58;20.30;99.90
54898;DHT22;40800;52.704;6.398;2023-07-31T15:21:23;20.00;99.90
54898;DHT22;40800;52.704;6.398;2023-07-31T15:23:49;20.40;99.90
54898;DHT22;40800;52.704;6.398;2023-07-31T15:26:14;20.10;99.90
54898;DHT22;40800;52.704;6.398;2023-07-31T15:28:40;20.00;99.90
54898;DHT22;40800;52.704;6.398;2023-07-31T15:31:05;19.80;99.90
54898;DHT22;40800;52.704;6.398;2023-07-31T15:33:31;19.70;99.90
54898;DHT22;40800;52.704;6.398;2023-07-31T15:35:57;19.50;99.90